Time;durP1;ratioP1;P1;durP2;ratioP2;P2;SDS_P1;SDS_P2;PMS_P1;PMS_P2;Temp;Humidity;BMP_temperature;BMP_pressure;BME280_temperature;BME280_humidity;BME280_pressure;Samples;Min_cycle;Max_cycle;Signal;HPM_P1;HPM_P2
2022/12/08 00:01:16;;;;;;;11.30;6.25;;;-7.30;93.20;;;;;;5093131;28;20077;-77
2022/12/08 00:03:42;;;;;;;13.63;6.72;;;-7.30;93.20;;;;;;5092725;28;20051;-79
2022/12/08 00:09:41;;;;;;;9.52;5.53;;;-7.30;93.20;;;;;;5087932;28;20035;-79
2022/12/08 00:12:12;;;;;;;9.85;5.93;;;-7.30;93.20;;;;;;5065502;28;20055;-80
2022/12/08 00:14:41;;;;;;;11.73;7.38;;;-7.20;93.20;;;;;;5093294;28;20101;-81
2022/12/08 00:17:08;;;;;;;10.50;6.47;;;-7.10;93.20;;;;;;5101083;28;20043;-80
2022/12/08 00:19:35;;;;;;;12.20;6.60;;;-7.00;93.20;;;;;;5092720;28;20024;-81
2022/12/08 00:22:02;;;;;;;12.15;6.43;;;-7.00;93.10;;;;;;5084770;28;20033;-79
2022/12/08 00:24:33;;;;;;;11.37;6.37;;;-7.00;92.90;;;;;;5084331;28;20052;-80
2022/12/08 00:26:59;;;;;;;9.68;6.13;;;-7.10;92.90;;;;;;5092301;28;20104;-80
2022/12/08 00:29:25;;;;;;;11.02;6.05;;;-7.00;92.90;;;;;;5092445;28;20024;-80
2022/12/08 00:31:51;;;;;;;17.35;8.05;;;-7.00;92.80;;;;;;5091121;28;20024;-80
2022/12/08 00:34:18;;;;;;;9.70;6.63;;;-7.00;92.80;;;;;;5076253;28;20056;-81
2022/12/08 00:36:44;;;;;;;8.80;6.32;;;-7.00;92.70;;;;;;5093547;28;20082;-81
2022/12/08 00:39:11;;;;;;;12.50;6.28;;;-7.00;92.80;;;;;;5093699;28;20397;-79
2022/12/08 00:44:22;;;;;;;13.40;7.68;;;-7.10;92.70;;;;;;5092786;28;19922;-82
2022/12/08 00:46:48;;;;;;;11.90;6.65;;;-7.10;92.80;;;;;;5092896;28;20441;-80
2022/12/08 00:49:14;;;;;;;7.65;5.13;;;-7.10;92.80;;;;;;5094840;28;20495;-83
2022/12/08 00:51:41;;;;;;;14.13;5.85;;;-7.10;92.90;;;;;;5103165;28;20057;-83
2022/12/08 00:54:07;;;;;;;15.20;7.28;;;-7.10;92.90;;;;;;5097553;28;20103;-82
2022/12/08 00:56:33;;;;;;;12.40;6.50;;;-7.20;93.00;;;;;;5092304;28;20085;-82
2022/12/08 00:59:00;;;;;;;12.63;5.65;;;-7.10;93.00;;;;;;5091988;28;20377;-81
2022/12/08 01:01:32;;;;;;;9.65;6.82;;;-7.10;93.00;;;;;;5093533;28;20396;-82
2022/12/08 01:04:03;;;;;;;8.15;5.95;;;-7.00;93.10;;;;;;5093747;28;20044;-81
2022/12/08 01:06:31;;;;;;;9.07;6.47;;;-6.90;92.90;;;;;;5073711;28;20123;-82
2022/12/08 01:09:08;;;;;;;10.48;7.03;;;-6.90;92.70;;;;;;5078239;28;20016;-82
2022/12/08 01:11:37;;;;;;;12.90;7.17;;;-7.00;92.60;;;;;;5084486;28;20017;-78
2022/12/08 01:14:03;;;;;;;9.48;5.85;;;-7.00;92.60;;;;;;5090597;28;20261;-78
2022/12/08 01:16:31;;;;;;;5.63;3.75;;;-7.00;92.60;;;;;;5090424;28;20024;-78
2022/12/08 01:18:58;;;;;;;9.68;5.82;;;-7.10;92.60;;;;;;5074122;28;20051;-80
2022/12/08 01:21:26;;;;;;;16.08;5.78;;;-7.10;92.50;;;;;;5076100;28;20031;-78
2022/12/08 01:23:57;;;;;;;12.60;6.95;;;-7.20;92.50;;;;;;5086113;28;20067;-78
2022/12/08 01:26:23;;;;;;;12.98;6.10;;;-7.20;92.60;;;;;;5088289;28;20397;-79
2022/12/08 01:28:49;;;;;;;7.65;4.93;;;-7.20;92.70;;;;;;5092117;28;20020;-79
2022/12/08 01:31:18;;;;;;;11.60;6.10;;;-7.10;92.80;;;;;;5091560;28;20032;-78
2022/12/08 01:33:44;;;;;;;8.15;5.85;;;-7.20;92.70;;;;;;5074055;28;20097;-79
2022/12/08 01:36:23;;;;;;;8.77;5.55;;;-7.20;92.70;;;;;;5095711;28;20027;-79
2022/12/08 01:38:49;;;;;;;14.63;6.25;;;-7.20;92.80;;;;;;5077326;28;20024;-80
2022/12/08 01:41:18;;;;;;;12.90;6.87;;;-7.20;92.90;;;;;;5095685;28;20476;-83
2022/12/08 01:44:21;;;;;;;10.65;4.15;;;-7.10;93.00;;;;;;5091995;28;20024;-82
2022/12/08 01:46:47;;;;;;;14.15;7.82;;;-7.10;92.90;;;;;;5093508;28;20032;-82
2022/12/08 01:49:34;;;;;;;9.45;6.07;;;-7.20;92.80;;;;;;5094364;28;20051;-81
2022/12/08 01:52:31;;;;;;;12.70;6.80;;;-7.20;92.90;;;;;;5080166;28;20352;-82
2022/12/08 01:55:01;;;;;;;13.55;7.45;;;-7.20;93.10;;;;;;5097681;28;20039;-83
2022/12/08 01:57:32;;;;;;;7.78;4.30;;;-7.20;93.00;;;;;;5077037;28;20074;-82
2022/12/08 02:00:07;;;;;;;10.63;4.32;;;-7.20;93.00;;;;;;5083886;28;20012;-81
2022/12/08 02:02:48;;;;;;;11.25;5.95;;;-7.30;92.90;;;;;;5093830;28;20036;-81
2022/12/08 02:05:16;;;;;;;10.93;6.07;;;-7.40;93.00;;;;;;5098001;28;20024;-81
2022/12/08 02:07:43;;;;;;;15.18;7.40;;;-7.40;93.10;;;;;;5100886;28;20024;-81
2022/12/08 02:10:10;;;;;;;;;;;-7.40;93.20;;;;;;5095736;28;20020;-81
2022/12/08 02:12:36;;;;;;;7.47;5.07;;;-7.40;93.20;;;;;;5095307;28;20283;-81
2022/12/08 02:15:03;;;;;;;12.95;7.45;;;-7.40;93.10;;;;;;5095317;28;20016;-82
2022/12/08 02:17:49;;;;;;;12.25;6.70;;;-7.40;93.20;;;;;;5080956;28;20082;-83
2022/12/08 02:20:56;;;;;;;11.03;5.97;;;-7.40;93.30;;;;;;5085542;28;20108;-80
2022/12/08 02:23:26;;;;;;;15.32;6.15;;;-7.40;93.20;;;;;;5012683;28;20267;-78
2022/12/08 02:26:07;;;;;;;10.52;5.30;;;-7.40;93.30;;;;;;5012961;28;20041;-79
2022/12/08 02:29:12;;;;;;;9.25;7.80;;;-7.40;93.50;;;;;;5053448;28;20031;-79
2022/12/08 02:32:12;;;;;;;9.82;5.35;;;-7.40;93.60;;;;;;5095108;28;20098;-80
2022/12/08 02:34:56;;;;;;;11.07;6.43;;;-7.40;93.50;;;;;;5077871;28;20151;-80
2022/12/08 02:37:38;;;;;;;14.80;6.75;;;-7.40;93.40;;;;;;5105178;28;20024;-81
2022/12/08 02:40:18;;;;;;;10.73;6.35;;;-7.40;93.40;;;;;;5095721;28;20024;-82
2022/12/08 02:42:51;;;;;;;9.70;5.78;;;-7.40;93.60;;;;;;5094765;28;20054;-81
2022/12/08 02:45:27;;;;;;;15.57;7.53;;;-7.30;93.60;;;;;;5094086;28;20020;-82
2022/12/08 02:47:53;;;;;;;8.93;4.13;;;-7.30;93.70;;;;;;5082151;28;20031;-82
2022/12/08 02:50:19;;;;;;;12.60;6.70;;;-7.30;93.70;;;;;;5075506;28;20065;-80
2022/12/08 02:52:47;;;;;;;10.23;6.78;;;-7.20;93.60;;;;;;5073804;28;20043;-83
2022/12/08 02:55:30;;;;;;;15.98;6.32;;;-7.30;93.50;;;;;;5073503;28;20016;-83
2022/12/08 02:58:14;;;;;;;12.10;6.93;;;-7.30;93.50;;;;;;5094586;28;20153;-82
2022/12/08 03:01:12;;;;;;;9.65;6.30;;;-7.30;93.30;;;;;;5090038;28;20124;-80
2022/12/08 03:03:46;;;;;;;7.53;4.85;;;-7.40;93.50;;;;;;5081547;28;20045;-81
2022/12/08 03:06:30;;;;;;;14.20;6.90;;;-7.40;93.60;;;;;;5074580;28;20039;-81
2022/12/08 03:09:19;;;;;;;15.63;8.68;;;-7.40;93.40;;;;;;5091575;28;20508;-79
2022/12/08 03:11:55;;;;;;;9.82;6.25;;;-7.40;93.60;;;;;;5090243;28;20481;-79
2022/12/08 03:14:21;;;;;;;7.60;4.57;;;-7.30;93.60;;;;;;5076511;28;20027;-81
2022/12/08 03:16:51;;;;;;;9.88;5.07;;;-7.30;93.50;;;;;;5085105;28;20500;-79
2022/12/08 03:19:28;;;;;;;17.80;8.05;;;-7.40;93.40;;;;;;5078699;28;20029;-80
2022/12/08 03:22:01;;;;;;;9.63;5.38;;;-7.40;93.50;;;;;;5093922;28;20031;-79
2022/12/08 03:24:33;;;;;;;11.77;6.05;;;-7.30;93.60;;;;;;5065114;28;20046;-80
2022/12/08 03:27:03;;;;;;;11.98;6.88;;;-7.40;93.20;;;;;;5091845;28;20032;-80
2022/12/08 03:29:31;;;;;;;12.77;6.82;;;-7.40;93.30;;;;;;5094231;28;20023;-81
2022/12/08 03:31:59;;;;;;;;;;;-7.40;93.50;;;;;;5093734;28;20423;-79
2022/12/08 03:34:27;;;;;;;9.60;5.95;;;-7.40;93.40;;;;;;5093456;28;19910;-79
2022/12/08 03:36:53;;;;;;;15.10;8.73;;;-7.40;93.30;;;;;;5093239;28;20452;-80
2022/12/08 03:39:19;;;;;;;12.45;7.00;;;-7.40;93.30;;;;;;5093563;28;20058;-80
2022/12/08 03:41:46;;;;;;;11.23;5.47;;;-7.40;93.40;;;;;;5074388;28;20071;-82
2022/12/08 03:44:12;;;;;;;11.70;7.10;;;-7.40;93.40;;;;;;5093118;28;20028;-80
2022/12/08 03:46:38;;;;;;;13.73;7.32;;;-7.40;93.40;;;;;;5082508;28;20042;-82
2022/12/08 03:49:04;;;;;;;8.30;6.20;;;-7.40;93.50;;;;;;5075172;28;20473;-82
2022/12/08 03:51:30;;;;;;;12.60;6.45;;;-7.30;93.50;;;;;;5091048;28;20389;-82
2022/12/08 03:53:56;;;;;;;15.98;6.38;;;-7.30;93.40;;;;;;5093924;28;20028;-82
2022/12/08 03:56:30;;;;;;;10.30;5.78;;;-7.30;93.50;;;;;;5092630;28;20505;-81
2022/12/08 03:58:56;;;;;;;15.35;7.05;;;-7.30;93.50;;;;;;5079588;28;20108;-81
2022/12/08 04:01:22;;;;;;;8.13;5.20;;;-7.40;93.70;;;;;;5096280;28;20162;-81
2022/12/08 04:03:49;;;;;;;7.57;4.80;;;-7.30;93.70;;;;;;5076023;28;20048;-81
2022/12/08 04:06:15;;;;;;;13.27;7.07;;;-7.40;93.70;;;;;;5093431;28;20115;-80
2022/12/08 04:08:41;;;;;;;12.88;6.90;;;-7.50;93.80;;;;;;5094583;28;20020;-81
2022/12/08 04:11:08;;;;;;;12.38;5.80;;;-7.50;94.00;;;;;;5075956;28;20020;-81
2022/12/08 04:13:35;;;;;;;9.77;7.40;;;-7.50;94.10;;;;;;5093188;28;20065;-81
2022/12/08 04:16:01;;;;;;;14.93;7.95;;;-7.50;94.30;;;;;;5093239;28;20013;-79
2022/12/08 04:18:27;;;;;;;11.32;6.18;;;-7.50;94.20;;;;;;5097674;28;20377;-79
2022/12/08 04:20:53;;;;;;;7.38;4.43;;;-7.40;94.40;;;;;;5106740;28;20028;-76
2022/12/08 04:23:19;;;;;;;12.00;7.32;;;-7.40;94.30;;;;;;5092139;28;20393;-80
2022/12/08 04:25:45;;;;;;;14.38;6.43;;;-7.50;94.50;;;;;;5096527;28;20042;-79
2022/12/08 04:28:12;;;;;;;13.27;7.22;;;-7.60;94.50;;;;;;5092308;28;20095;-81
2022/12/08 04:30:38;;;;;;;9.87;5.60;;;-7.60;94.80;;;;;;5092327;28;20050;-78
2022/12/08 04:33:04;;;;;;;11.55;6.38;;;-7.60;95.10;;;;;;5050698;28;20028;-80
2022/12/08 04:35:31;;;;;;;11.82;6.03;;;-7.60;95.20;;;;;;5087106;28;20016;-79
2022/12/08 04:37:57;;;;;;;21.10;7.40;;;-7.60;95.20;;;;;;5084290;28;20020;-76
2022/12/08 04:40:23;;;;;;;15.43;7.50;;;-7.60;95.20;;;;;;5100925;28;20024;-81
2022/12/08 04:42:50;;;;;;;16.60;8.48;;;-7.60;95.60;;;;;;5097487;28;20015;-78
2022/12/08 04:45:16;;;;;;;12.00;7.05;;;-7.60;95.70;;;;;;5072598;28;20032;-81
2022/12/08 04:47:42;;;;;;;10.65;6.75;;;-7.50;95.80;;;;;;5054507;28;20036;-80
2022/12/08 04:50:08;;;;;;;15.43;7.00;;;-7.50;96.00;;;;;;5086734;28;20013;-79
2022/12/08 04:52:34;;;;;;;8.90;6.35;;;-7.50;96.00;;;;;;5092074;28;20016;-79
2022/12/08 04:55:00;;;;;;;12.73;7.15;;;-7.50;96.20;;;;;;5085221;28;20107;-79
2022/12/08 04:57:26;;;;;;;14.18;6.70;;;-7.50;96.20;;;;;;5082336;28;20017;-79
2022/12/08 04:59:52;;;;;;;13.95;8.02;;;-7.50;96.30;;;;;;5087731;28;20452;-79
2022/12/08 05:02:18;;;;;;;12.30;6.47;;;-7.50;96.40;;;;;;5091593;28;20044;-80
2022/12/08 05:04:44;;;;;;;11.50;5.03;;;-7.50;96.60;;;;;;5094087;28;20040;-79
2022/12/08 05:07:10;;;;;;;11.03;4.67;;;-7.50;96.60;;;;;;5091739;28;20401;-79
2022/12/08 05:09:36;;;;;;;15.25;8.80;;;-7.60;96.50;;;;;;5093831;28;20016;-78
2022/12/08 05:12:03;;;;;;;13.45;8.20;;;-7.60;96.70;;;;;;5080066;28;20073;-80
2022/12/08 05:14:29;;;;;;;11.13;8.27;;;-7.60;96.80;;;;;;5094198;28;20095;-80
2022/12/08 05:16:55;;;;;;;15.98;11.20;;;-7.60;96.70;;;;;;5098429;28;20111;-79
2022/12/08 05:19:20;;;;;;;9.75;5.50;;;-7.60;96.80;;;;;;5094249;28;20031;-80
2022/12/08 05:21:46;;;;;;;13.55;7.03;;;-7.60;96.80;;;;;;5080432;28;20044;-78
2022/12/08 05:24:12;;;;;;;11.68;6.88;;;-7.60;96.90;;;;;;5080004;28;20028;-79
2022/12/08 05:26:38;;;;;;;12.98;7.47;;;-7.60;97.10;;;;;;5098156;28;20024;-80
2022/12/08 05:29:04;;;;;;;13.88;8.50;;;-7.50;97.30;;;;;;5098461;28;20055;-80
2022/12/08 05:31:30;;;;;;;12.73;7.65;;;-7.50;97.30;;;;;;5084344;28;20099;-79
2022/12/08 05:33:59;;;;;;;13.00;8.32;;;-7.50;97.30;;;;;;5098450;28;20120;-80
2022/12/08 05:36:25;;;;;;;13.15;5.70;;;-7.40;97.50;;;;;;5099874;28;20031;-80
2022/12/08 05:38:51;;;;;;;12.55;7.03;;;-7.30;97.50;;;;;;5098887;28;20016;-80
2022/12/08 05:41:19;;;;;;;11.95;7.18;;;-7.30;97.50;;;;;;5098316;28;20028;-79
2022/12/08 05:43:45;;;;;;;12.70;6.43;;;-7.30;97.50;;;;;;5094275;28;20032;-82
2022/12/08 05:46:12;;;;;;;11.85;7.28;;;-7.30;97.50;;;;;;5098282;28;20043;-80
2022/12/08 05:48:39;;;;;;;11.43;7.03;;;-7.30;97.50;;;;;;5093872;28;20485;-81
2022/12/08 05:51:19;;;;;;;14.68;7.35;;;-7.40;97.10;;;;;;5073080;28;20040;-81
2022/12/08 05:53:46;;;;;;;12.55;5.55;;;-7.40;97.30;;;;;;5097308;28;20027;-79
2022/12/08 05:56:12;;;;;;;22.27;8.40;;;-7.40;97.20;;;;;;5098585;28;20020;-81
2022/12/08 05:58:38;;;;;;;14.38;7.25;;;-7.50;97.10;;;;;;5098136;28;20035;-82
2022/12/08 06:01:04;;;;;;;8.50;5.43;;;-7.40;97.20;;;;;;5098059;28;20087;-81
2022/12/08 06:03:31;;;;;;;14.68;7.65;;;-7.50;97.20;;;;;;5099927;28;20055;-81
2022/12/08 06:05:57;;;;;;;10.77;6.05;;;-7.50;97.20;;;;;;5083538;28;20023;-80
2022/12/08 06:08:23;;;;;;;13.82;6.97;;;-7.50;96.70;;;;;;5098121;28;20028;-80
2022/12/08 06:10:49;;;;;;;13.65;6.15;;;-7.50;97.10;;;;;;5096299;28;20016;-81
2022/12/08 06:13:14;;;;;;;10.50;6.80;;;-7.50;97.20;;;;;;5097908;28;20016;-81
2022/12/08 06:15:41;;;;;;;12.05;5.45;;;-7.40;97.30;;;;;;5098251;28;20103;-80
2022/12/08 06:18:08;;;;;;;14.60;6.70;;;-7.40;97.20;;;;;;5065587;28;20024;-80
2022/12/08 06:20:34;;;;;;;14.02;6.30;;;-7.40;97.20;;;;;;5077236;28;20114;-80
2022/12/08 06:23:00;;;;;;;9.02;4.43;;;-7.50;97.30;;;;;;5098172;28;20117;-80
2022/12/08 06:25:26;;;;;;;5.38;3.67;;;-7.40;97.40;;;;;;5094914;28;20342;-81
2022/12/08 06:27:52;;;;;;;12.98;7.80;;;-7.40;97.40;;;;;;5077085;28;20043;-80
2022/12/08 06:30:18;;;;;;;8.35;4.75;;;-7.40;97.40;;;;;;5078063;28;20020;-82
2022/12/08 06:32:44;;;;;;;11.82;6.88;;;-7.40;97.50;;;;;;5095383;28;20077;-80
2022/12/08 06:35:10;;;;;;;3.83;3.25;;;-7.40;97.40;;;;;;5095386;28;20020;-80
2022/12/08 06:37:37;;;;;;;13.65;7.78;;;-7.40;97.30;;;;;;5094786;28;20052;-82
2022/12/08 06:40:03;;;;;;;19.65;11.05;;;-7.40;97.30;;;;;;5078818;28;20488;-80
2022/12/08 06:42:45;;;;;;;17.33;7.77;;;-7.40;97.50;;;;;;5101206;28;20031;-80
2022/12/08 06:45:14;;;;;;;15.50;7.40;;;-7.30;97.80;;;;;;5095077;28;20024;-80
2022/12/08 06:47:40;;;;;;;8.40;4.90;;;-7.30;97.70;;;;;;5089087;28;20039;-81
2022/12/08 06:50:07;;;;;;;14.77;7.53;;;-7.30;97.50;;;;;;5095355;28;20027;-81
2022/12/08 06:52:33;;;;;;;8.15;4.90;;;-7.30;97.40;;;;;;5096354;28;20027;-80
2022/12/08 06:54:59;;;;;;;13.57;6.28;;;-7.30;97.60;;;;;;5094445;28;20103;-80
2022/12/08 06:57:25;;;;;;;19.42;9.10;;;-7.20;97.80;;;;;;5094504;28;20534;-80
2022/12/08 06:59:51;;;;;;;12.63;6.05;;;-7.20;97.70;;;;;;5094160;28;20028;-81
2022/12/08 07:02:16;;;;;;;12.30;5.75;;;-7.20;97.00;;;;;;5092858;28;20489;-80
2022/12/08 07:04:43;;;;;;;17.30;6.90;;;-7.30;97.00;;;;;;5082441;28;20489;-80
2022/12/08 07:07:09;;;;;;;19.75;5.78;;;-7.30;97.20;;;;;;5094075;28;20039;-79
2022/12/08 07:09:35;;;;;;;14.27;6.03;;;-7.20;97.20;;;;;;5094496;28;20016;-79
2022/12/08 07:12:03;;;;;;;14.20;6.77;;;-7.20;96.80;;;;;;5093944;28;20028;-80
2022/12/08 07:14:28;;;;;;;;;;;-7.30;96.80;;;;;;5093874;28;20294;-79
2022/12/08 07:16:54;;;;;;;9.98;5.50;;;-7.30;96.90;;;;;;5093967;28;20349;-79
2022/12/08 07:19:20;;;;;;;18.05;6.15;;;-7.30;96.70;;;;;;5091961;28;20020;-82
2022/12/08 07:21:46;;;;;;;7.68;4.43;;;-7.30;96.60;;;;;;5088493;28;20028;-79
2022/12/08 07:24:12;;;;;;;4.32;3.90;;;-7.30;96.70;;;;;;5093588;28;20024;-82
2022/12/08 07:26:39;;;;;;;15.05;6.13;;;-7.40;96.30;;;;;;5091984;28;20036;-82
2022/12/08 07:29:05;;;;;;;16.25;7.80;;;-7.40;96.70;;;;;;5093827;28;20028;-80
2022/12/08 07:31:31;;;;;;;13.68;8.05;;;-7.30;96.90;;;;;;5092192;28;20100;-80
2022/12/08 07:33:57;;;;;;;18.10;8.80;;;-7.20;96.90;;;;;;5093510;28;20449;-81
2022/12/08 07:36:24;;;;;;;10.73;4.75;;;-7.10;97.30;;;;;;5093268;28;20069;-82
2022/12/08 07:38:54;;;;;;;7.00;5.40;;;-7.10;96.50;;;;;;5093875;28;20027;-81
2022/12/08 07:41:25;;;;;;;14.30;7.32;;;-7.10;96.60;;;;;;5061835;28;20116;-80
2022/12/08 07:43:52;;;;;;;18.45;6.72;;;-7.10;96.90;;;;;;5094007;28;20024;-82
2022/12/08 07:46:19;;;;;;;;;;;-7.00;96.90;;;;;;5062098;28;20174;-79
2022/12/08 07:48:45;;;;;;;13.43;6.68;;;-7.00;96.80;;;;;;5094775;28;19908;-79
2022/12/08 07:51:13;;;;;;;13.93;8.07;;;-7.00;96.40;;;;;;5096212;28;20094;-81
2022/12/08 07:53:41;;;;;;;16.73;7.63;;;-6.90;96.70;;;;;;5094286;28;20039;-79
2022/12/08 07:56:08;;;;;;;11.05;6.65;;;-6.90;97.00;;;;;;5093387;28;20020;-80
2022/12/08 07:58:34;;;;;;;12.20;6.85;;;-6.80;97.00;;;;;;5090264;28;20351;-82
2022/12/08 08:01:00;;;;;;;12.02;6.78;;;-6.80;96.60;;;;;;5092067;28;20054;-81
2022/12/08 08:03:26;;;;;;;10.45;4.80;;;-6.80;96.80;;;;;;5088414;28;20044;-79
2022/12/08 08:06:00;;;;;;;12.88;8.25;;;-6.80;96.20;;;;;;5072311;28;20115;-80
2022/12/08 08:08:26;;;;;;;13.60;6.28;;;-6.80;96.20;;;;;;5072346;28;20377;-80
2022/12/08 08:10:52;;;;;;;11.98;6.45;;;-6.80;96.30;;;;;;5072180;28;20024;-81
2022/12/08 08:13:18;;;;;;;26.63;8.68;;;-6.80;96.20;;;;;;5073229;28;20029;-80
2022/12/08 08:15:44;;;;;;;13.95;7.68;;;-6.80;96.30;;;;;;5072539;28;20440;-79
2022/12/08 08:18:10;;;;;;;10.23;4.95;;;-6.70;96.60;;;;;;5072375;28;20021;-78
2022/12/08 08:20:35;;;;;;;10.35;6.80;;;-6.80;95.90;;;;;;5071999;28;20124;-79
2022/12/08 08:23:01;;;;;;;9.95;5.35;;;-6.70;96.30;;;;;;5072163;28;20133;-80
2022/12/08 08:25:27;;;;;;;12.50;6.55;;;-6.70;96.30;;;;;;5072041;28;20486;-79
2022/12/08 08:27:53;;;;;;;14.60;7.55;;;-6.70;95.80;;;;;;5072486;28;20028;-79
2022/12/08 08:30:19;;;;;;;8.40;4.90;;;-6.70;95.80;;;;;;5071806;28;20029;-80
2022/12/08 08:32:48;;;;;;;10.13;6.28;;;-6.70;95.70;;;;;;5075393;28;20417;-80
2022/12/08 08:35:14;;;;;;;11.57;5.70;;;-6.80;96.00;;;;;;5074309;28;20084;-81
2022/12/08 08:37:40;;;;;;;10.30;5.38;;;-6.70;95.80;;;;;;5073745;28;20047;-80
2022/12/08 08:40:07;;;;;;;9.90;6.85;;;-6.70;96.00;;;;;;5081831;28;20020;-82
2022/12/08 08:42:33;;;;;;;13.15;5.63;;;-6.60;96.00;;;;;;5080949;28;20012;-80
2022/12/08 08:44:59;;;;;;;12.77;6.28;;;-6.60;95.80;;;;;;5078257;28;20025;-80
2022/12/08 08:47:25;;;;;;;15.10;7.90;;;-6.70;95.40;;;;;;5073266;28;20040;-81
2022/12/08 08:49:54;;;;;;;13.77;6.93;;;-6.70;95.90;;;;;;5072401;28;20111;-81
2022/12/08 08:52:20;;;;;;;11.00;7.18;;;-6.60;96.20;;;;;;5072614;28;20025;-80
2022/12/08 08:54:46;;;;;;;13.40;7.07;;;-6.50;96.50;;;;;;5072251;28;20075;-80
2022/12/08 08:57:12;;;;;;;5.72;4.40;;;-6.40;96.30;;;;;;5072082;28;20394;-80
2022/12/08 08:59:38;;;;;;;12.30;5.85;;;-6.40;95.40;;;;;;5072010;28;20013;-82
2022/12/08 09:02:03;;;;;;;12.35;5.82;;;-6.60;95.10;;;;;;5072655;28;20027;-81
2022/12/08 09:04:29;;;;;;;11.70;7.35;;;-6.60;95.90;;;;;;5093161;28;20493;-81
2022/12/08 09:06:55;;;;;;;17.13;7.50;;;-6.50;96.30;;;;;;5091913;28;20032;-81
2022/12/08 09:09:24;;;;;;;16.05;7.88;;;-6.50;96.60;;;;;;5091857;28;20040;-82
2022/12/08 09:11:49;;;;;;;11.95;7.28;;;-6.40;96.60;;;;;;5091754;28;20092;-82
2022/12/08 09:14:15;;;;;;;13.13;7.68;;;-6.40;96.70;;;;;;5091997;28;20024;-80
2022/12/08 09:16:42;;;;;;;14.02;7.38;;;-6.30;96.70;;;;;;5092222;28;20751;-80
2022/12/08 09:19:08;;;;;;;14.32;5.47;;;-6.30;96.80;;;;;;5092147;28;20105;-80
2022/12/08 09:21:34;;;;;;;16.65;8.00;;;-6.40;96.40;;;;;;5092636;28;20020;-81
2022/12/08 09:24:00;;;;;;;11.65;5.70;;;-6.50;96.60;;;;;;5093195;28;20020;-81
2022/12/08 09:26:27;;;;;;;8.20;5.88;;;-6.60;96.80;;;;;;5088446;28;20036;-80
2022/12/08 09:28:53;;;;;;;;;;;-6.70;96.60;;;;;;5082864;28;20020;-80
2022/12/08 09:31:20;;;;;;;6.03;3.55;;;-6.60;96.90;;;;;;5077658;28;19905;-80
2022/12/08 09:33:47;;;;;;;17.23;7.13;;;-6.70;96.60;;;;;;5075830;28;20062;-80
2022/12/08 09:36:14;;;;;;;18.17;9.25;;;-6.70;97.00;;;;;;5092974;28;20020;-81
2022/12/08 09:38:40;;;;;;;14.15;7.65;;;-6.60;97.20;;;;;;5090117;28;20031;-81
2022/12/08 09:41:33;;;;;;;12.60;8.27;;;-6.60;97.30;;;;;;5091785;28;20027;-81
2022/12/08 09:44:15;;;;;;;16.75;9.20;;;-6.50;97.30;;;;;;5080084;28;20020;-80
2022/12/08 09:46:42;;;;;;;15.43;8.18;;;-6.50;97.60;;;;;;5090138;28;20550;-81
2022/12/08 09:49:17;;;;;;;20.50;9.52;;;-6.50;97.20;;;;;;5091577;28;20021;-81
2022/12/08 09:51:44;;;;;;;11.80;6.53;;;-6.50;97.10;;;;;;5091575;28;20024;-81
2022/12/08 09:54:33;;;;;;;17.42;9.60;;;-6.50;96.80;;;;;;5091732;28;20095;-81
2022/12/08 09:57:04;;;;;;;8.43;6.30;;;-6.60;97.20;;;;;;5095164;28;20031;-80
2022/12/08 09:59:33;;;;;;;12.85;6.28;;;-6.60;96.80;;;;;;5095038;28;20435;-79
2022/12/08 10:02:00;;;;;;;11.93;7.68;;;-6.60;96.90;;;;;;5095015;28;20020;-81
2022/12/08 10:04:26;;;;;;;17.05;9.02;;;-6.60;96.90;;;;;;5094957;28;20028;-81
2022/12/08 10:06:57;;;;;;;11.02;6.85;;;-6.60;97.10;;;;;;5094960;28;20036;-82
2022/12/08 10:09:42;;;;;;;18.42;7.93;;;-6.50;97.30;;;;;;5094961;28;20072;-79
2022/12/08 10:12:44;;;;;;;13.70;5.80;;;-6.50;97.50;;;;;;5095090;28;20115;-80
2022/12/08 10:15:43;;;;;;;11.57;7.65;;;-6.50;97.60;;;;;;5066004;28;20031;-81
2022/12/08 10:18:30;;;;;;;12.18;7.28;;;-6.50;97.90;;;;;;5088749;28;20166;-79
2022/12/08 10:21:17;;;;;;;12.40;8.13;;;-6.50;98.10;;;;;;5089789;28;20024;-79
2022/12/08 10:23:57;;;;;;;16.60;8.13;;;-6.40;98.40;;;;;;5094730;28;20157;-80
2022/12/08 10:26:23;;;;;;;11.88;7.38;;;-6.40;98.40;;;;;;5076254;28;20098;-82
2022/12/08 10:28:49;;;;;;;19.75;9.32;;;-6.50;98.50;;;;;;5095453;28;20031;-79
2022/12/08 10:31:24;;;;;;;12.18;7.25;;;-6.50;98.60;;;;;;5080319;28;20744;-80
2022/12/08 10:34:09;;;;;;;17.60;9.02;;;-6.60;98.80;;;;;;5103518;28;20503;-79
2022/12/08 10:36:56;;;;;;;13.55;7.88;;;-6.60;99.00;;;;;;5096269;28;20028;-82
2022/12/08 10:39:36;;;;;;;14.10;8.88;;;-6.50;99.40;;;;;;5082363;28;20063;-78
2022/12/08 10:42:17;;;;;;;13.52;6.18;;;-6.40;99.40;;;;;;5095441;28;20158;-82
2022/12/08 10:45:08;;;;;;;15.25;8.95;;;-6.40;99.20;;;;;;5098772;28;20024;-81
2022/12/08 10:47:41;;;;;;;10.88;5.85;;;-6.40;99.30;;;;;;5097815;28;20032;-81
2022/12/08 10:50:28;;;;;;;15.52;8.75;;;-6.40;99.30;;;;;;5095444;28;20080;-79
2022/12/08 10:53:14;;;;;;;;;;;-6.30;99.40;;;;;;5077968;28;20028;-81
2022/12/08 10:55:49;;;;;;;13.73;6.28;;;-6.40;98.60;;;;;;5096289;28;19927;-78
2022/12/08 10:58:25;;;;;;;12.52;8.07;;;-6.40;98.70;;;;;;5098787;28;20543;-81
2022/12/08 11:00:55;;;;;;;15.93;9.43;;;-6.40;98.90;;;;;;5086161;28;20096;-79
2022/12/08 11:03:29;;;;;;;12.45;8.02;;;-6.40;99.10;;;;;;5094161;28;20124;-80
2022/12/08 11:05:57;;;;;;;9.90;5.75;;;-6.30;99.40;;;;;;5094060;28;20024;-80
2022/12/08 11:08:24;;;;;;;9.57;6.03;;;-6.30;99.20;;;;;;5093952;28;20017;-82
2022/12/08 11:10:50;;;;;;;14.23;8.43;;;-6.30;99.20;;;;;;5075768;28;20381;-80
2022/12/08 11:13:23;;;;;;;12.05;7.57;;;-6.30;99.20;;;;;;5094184;28;20031;-81
2022/12/08 11:15:54;;;;;;;19.98;8.43;;;-6.20;99.50;;;;;;5093628;28;20032;-80
2022/12/08 11:18:38;;;;;;;15.77;6.97;;;-6.10;99.60;;;;;;5076622;28;20469;-81
2022/12/08 11:21:13;;;;;;;14.85;7.78;;;-6.10;99.40;;;;;;5095037;28;20028;-80
2022/12/08 11:23:41;;;;;;;10.77;6.63;;;-6.00;99.50;;;;;;5083239;28;20016;-81
2022/12/08 11:26:30;;;;;;;17.08;7.47;;;-6.00;99.30;;;;;;5093396;28;20433;-83
2022/12/08 11:28:56;;;;;;;12.80;7.35;;;-6.00;99.10;;;;;;5093601;28;20404;-80
2022/12/08 11:31:29;;;;;;;11.95;7.30;;;-6.00;99.20;;;;;;5093472;28;20077;-80
2022/12/08 11:33:55;;;;;;;18.27;8.05;;;-6.00;99.10;;;;;;5093422;28;20016;-79
2022/12/08 11:36:24;;;;;;;15.35;7.10;;;-6.00;99.10;;;;;;5091741;28;20114;-80
2022/12/08 11:38:57;;;;;;;15.88;7.70;;;-6.00;98.90;;;;;;5093363;28;20469;-79
2022/12/08 11:41:31;;;;;;;11.57;7.25;;;-6.00;98.90;;;;;;5093429;28;20036;-79
2022/12/08 11:44:22;;;;;;;17.77;6.70;;;-6.00;98.70;;;;;;5075136;28;20051;-80
2022/12/08 11:46:59;;;;;;;9.93;6.22;;;-6.10;98.60;;;;;;5093138;28;20397;-81
2022/12/08 11:49:35;;;;;;;13.45;6.20;;;-6.10;98.60;;;;;;5074955;28;20067;-79
2022/12/08 11:52:21;;;;;;;16.27;8.43;;;-6.10;98.80;;;;;;5094695;28;20035;-81
2022/12/08 11:55:23;;;;;;;10.05;6.10;;;-6.10;99.10;;;;;;5093090;28;20027;-79
2022/12/08 11:57:53;;;;;;;13.23;8.13;;;-6.10;99.10;;;;;;5092994;28;20044;-81
2022/12/08 12:00:19;;;;;;;10.25;5.47;;;-6.10;99.10;;;;;;5092761;28;20020;-80
2022/12/08 12:02:52;;;;;;;15.25;8.70;;;-6.00;99.30;;;;;;5074397;28;20059;-81
2022/12/08 12:05:48;;;;;;;18.70;8.85;;;-6.00;99.30;;;;;;5092676;28;20093;-79
2022/12/08 12:08:38;;;;;;;17.85;8.90;;;-6.00;99.50;;;;;;5092832;28;20101;-80
2022/12/08 12:14:31;;;;;;;14.13;6.65;;;-5.90;99.60;;;;;;5090824;28;20089;-81
2022/12/08 12:17:04;;;;;;;13.82;8.57;;;-5.90;99.20;;;;;;5082629;28;20026;-83
2022/12/08 12:19:35;;;;;;;8.55;5.72;;;-6.00;99.10;;;;;;5092452;28;20051;-80
2022/12/08 12:22:15;;;;;;;15.38;6.93;;;-6.00;99.30;;;;;;5074921;28;20370;-81
2022/12/08 12:24:45;;;;;;;21.27;9.57;;;-6.00;99.40;;;;;;5093278;28;20107;-81
2022/12/08 12:27:13;;;;;;;13.80;7.15;;;-5.90;99.70;;;;;;5094298;28;20085;-82
2022/12/08 12:29:48;;;;;;;16.50;6.93;;;-5.90;99.50;;;;;;5094103;28;20023;-81
2022/12/08 12:32:17;;;;;;;13.93;6.43;;;-5.90;99.20;;;;;;5075000;28;20020;-82
2022/12/08 12:34:49;;;;;;;13.00;8.32;;;-6.00;99.30;;;;;;5092614;28;20074;-81
2022/12/08 12:37:26;;;;;;;12.38;6.97;;;-5.90;99.50;;;;;;5092686;28;20093;-82
2022/12/08 12:39:52;;;;;;;14.40;8.57;;;-5.90;99.70;;;;;;5092367;28;20031;-80
2022/12/08 12:42:42;;;;;;;17.60;7.85;;;-5.90;99.70;;;;;;5091658;28;20028;-81
2022/12/08 12:45:18;;;;;;;13.57;6.82;;;-5.80;99.80;;;;;;5074815;28;20012;-80
2022/12/08 12:48:12;;;;;;;15.82;10.05;;;-5.80;99.80;;;;;;5093911;28;20032;-80
2022/12/08 12:50:44;;;;;;;12.55;6.78;;;-5.80;99.90;;;;;;5082062;28;20024;-81
2022/12/08 12:53:15;;;;;;;6.20;4.68;;;-5.80;99.70;;;;;;5092793;28;20028;-81
2022/12/08 12:56:02;;;;;;;14.02;8.32;;;-5.80;99.20;;;;;;5092235;28;20016;-81
2022/12/08 12:58:30;;;;;;;13.50;6.60;;;-5.90;99.50;;;;;;5092192;28;20024;-81
2022/12/08 13:01:11;;;;;;;14.45;7.40;;;-5.80;99.60;;;;;;5092440;28;20023;-82
2022/12/08 13:04:01;;;;;;;9.23;6.28;;;-5.90;99.40;;;;;;5092541;28;20052;-82
2022/12/08 13:06:38;;;;;;;9.43;6.15;;;-5.80;99.60;;;;;;5093554;28;20032;-82
2022/12/08 13:09:08;;;;;;;14.60;8.05;;;-5.90;99.40;;;;;;5093419;28;20032;-82